Time;durP1;ratioP1;P1;durP2;ratioP2;P2;SDS_P1;SDS_P2;PMS_P1;PMS_P2;Temp;Humidity;BMP_temperature;BMP_pressure;BME280_temperature;BME280_humidity;BME280_pressure;Samples;Min_cycle;Max_cycle;Signal;HPM_P1;HPM_P2
2022/10/16 00:00:44;;;;;;;11.55;2.70;;;12.30;99.90;;;;;;6248248;22;20073;-74
2022/10/16 00:03:10;;;;;;;11.60;2.65;;;12.40;99.90;;;;;;6275920;22;20066;-73
2022/10/16 00:05:42;;;;;;;12.27;2.75;;;12.30;99.90;;;;;;6274862;22;20046;-72
2022/10/16 00:08:09;;;;;;;13.52;2.60;;;12.30;99.90;;;;;;6274743;22;20459;-73
2022/10/16 00:10:35;;;;;;;14.25;2.83;;;12.20;99.90;;;;;;6275497;22;20023;-74
2022/10/16 00:13:00;;;;;;;11.45;2.47;;;12.20;99.90;;;;;;6275671;22;20012;-74
2022/10/16 00:15:26;;;;;;;11.82;2.42;;;12.20;99.90;;;;;;6275807;22;20016;-73
2022/10/16 00:17:52;;;;;;;9.75;2.20;;;12.20;99.90;;;;;;6276061;22;20078;-73
2022/10/16 00:20:17;;;;;;;7.13;2.05;;;12.20;99.90;;;;;;6275371;22;20383;-73
2022/10/16 00:22:43;;;;;;;11.13;2.55;;;12.20;99.90;;;;;;6248054;22;20015;-74
2022/10/16 00:25:09;;;;;;;9.93;2.53;;;12.10;99.90;;;;;;6275584;22;20027;-74
2022/10/16 00:27:35;;;;;;;10.57;2.08;;;12.10;99.90;;;;;;6275014;22;20039;-74
2022/10/16 00:30:00;;;;;;;10.48;2.70;;;12.10;99.90;;;;;;6274997;22;20008;-74
2022/10/16 00:32:26;;;;;;;10.93;2.53;;;12.10;99.90;;;;;;6274640;22;20047;-74
2022/10/16 00:34:54;;;;;;;14.77;2.55;;;12.20;99.90;;;;;;6274946;22;20340;-74
2022/10/16 00:37:20;;;;;;;10.55;2.65;;;12.20;99.90;;;;;;6273987;22;20023;-73
2022/10/16 00:39:46;;;;;;;9.88;2.25;;;12.20;99.90;;;;;;6275421;22;20012;-73
2022/10/16 00:42:17;;;;;;;13.40;2.63;;;12.10;99.90;;;;;;6275429;22;20015;-73
2022/10/16 00:44:44;;;;;;;13.82;2.78;;;12.20;99.90;;;;;;6248384;22;20016;-74
2022/10/16 00:47:15;;;;;;;5.87;2.37;;;12.10;99.90;;;;;;6275082;22;20042;-74
2022/10/16 00:49:41;;;;;;;11.35;2.30;;;12.10;99.90;;;;;;6275368;22;20011;-72
2022/10/16 00:52:07;;;;;;;9.05;2.10;;;12.20;99.90;;;;;;6275225;22;20367;-73
2022/10/16 00:54:33;;;;;;;9.20;2.40;;;12.10;99.90;;;;;;6279932;22;20022;-73
2022/10/16 00:57:05;;;;;;;10.52;2.33;;;12.20;99.90;;;;;;6276123;22;20012;-73
2022/10/16 00:59:35;;;;;;;6.38;1.80;;;12.20;99.90;;;;;;6276198;22;20051;-74
2022/10/16 01:02:03;;;;;;;5.45;1.85;;;12.10;99.90;;;;;;6274478;22;20008;-74
2022/10/16 01:04:35;;;;;;;8.57;2.17;;;12.10;99.90;;;;;;6222230;22;20023;-72
2022/10/16 01:07:09;;;;;;;14.07;2.28;;;12.10;99.90;;;;;;6274333;22;20015;-73
2022/10/16 01:10:08;;;;;;;9.88;2.50;;;12.10;99.90;;;;;;6275471;22;20007;-72
2022/10/16 01:12:46;;;;;;;7.97;1.90;;;12.10;99.90;;;;;;6274906;22;20020;-73
2022/10/16 01:15:44;;;;;;;9.48;2.40;;;12.10;99.90;;;;;;6274936;22;20371;-74
2022/10/16 01:18:16;;;;;;;8.18;1.95;;;12.10;99.90;;;;;;6267298;22;20100;-73
2022/10/16 01:20:50;;;;;;;6.13;1.83;;;12.20;99.90;;;;;;6274160;22;20050;-73
2022/10/16 01:23:24;;;;;;;11.32;2.45;;;12.20;99.90;;;;;;6274717;22;20019;-74
2022/10/16 01:26:09;;;;;;;5.28;1.73;;;12.20;99.90;;;;;;6274555;22;20019;-73
2022/10/16 01:28:45;;;;;;;4.60;1.92;;;12.20;99.90;;;;;;6274522;22;20383;-73
2022/10/16 01:31:12;;;;;;;7.13;1.95;;;12.20;99.90;;;;;;6274684;22;20441;-72
2022/10/16 01:33:45;;;;;;;10.23;1.80;;;12.20;99.90;;;;;;6274767;22;20027;-72
2022/10/16 12:23:58;;;;;;;12.93;2.60;;;17.70;99.90;;;;;;6221515;22;20059;-82
2022/10/16 12:26:38;;;;;;;17.90;2.97;;;17.70;99.90;;;;;;6235549;23;20020;-80
2022/10/16 12:29:23;;;;;;;14.50;2.72;;;17.70;99.90;;;;;;6259028;23;20027;-82
2022/10/16 12:31:50;;;;;;;10.43;2.50;;;17.60;99.90;;;;;;6234736;23;20019;-81
2022/10/16 12:34:32;;;;;;;10.50;2.50;;;17.50;99.90;;;;;;6239492;23;20012;-80
2022/10/16 12:37:14;;;;;;;10.07;2.83;;;17.40;99.90;;;;;;6267270;23;20031;-82
2022/10/16 12:39:40;;;;;;;11.80;2.72;;;17.40;99.90;;;;;;6241918;23;20102;-82
2022/10/16 12:42:20;;;;;;;19.25;3.08;;;17.30;99.90;;;;;;6238948;23;20016;-82
2022/10/16 12:44:46;;;;;;;13.57;3.08;;;17.30;99.90;;;;;;6269300;23;20028;-82
2022/10/16 12:47:34;;;;;;;23.67;3.15;;;17.30;99.90;;;;;;6243671;23;19996;-81
2022/10/16 12:50:00;;;;;;;10.65;2.80;;;17.20;99.90;;;;;;6258972;23;20016;-82
2022/10/16 12:52:36;;;;;;;12.13;2.72;;;17.10;99.90;;;;;;6226589;23;20096;-82
2022/10/16 12:55:04;;;;;;;13.25;2.80;;;17.20;99.90;;;;;;6225907;23;20464;-81
2022/10/16 12:57:47;;;;;;;10.60;2.60;;;17.20;99.90;;;;;;6252346;23;20515;-82
2022/10/16 13:00:36;;;;;;;12.50;2.65;;;17.20;99.90;;;;;;6252486;23;20016;-83
2022/10/16 13:03:54;;;;;;;13.45;2.42;;;17.20;99.90;;;;;;6226051;23;20020;-82
2022/10/16 13:06:34;;;;;;;10.63;2.40;;;17.10;99.90;;;;;;6131206;23;20069;-82
2022/10/16 13:09:30;;;;;;;19.55;2.10;;;17.00;99.90;;;;;;6130930;23;20022;-82
2022/10/16 13:12:14;;;;;;;9.35;2.10;;;17.00;99.90;;;;;;6236620;23;20012;-82
2022/10/16 13:15:04;;;;;;;14.27;2.40;;;17.00;99.90;;;;;;6228719;23;20020;-83
2022/10/16 13:17:35;;;;;;;12.50;2.22;;;16.90;99.90;;;;;;6262707;23;20020;-84
2022/10/16 13:20:41;;;;;;;12.00;2.67;;;16.90;99.90;;;;;;6258713;23;20043;-83
2022/10/16 13:23:19;;;;;;;10.15;2.40;;;16.90;99.90;;;;;;6185403;22;20047;-81
2022/10/16 13:26:09;;;;;;;11.75;3.05;;;16.80;99.90;;;;;;6293193;22;20075;-82
2022/10/16 13:28:37;;;;;;;11.32;2.35;;;16.70;99.90;;;;;;6294259;22;20019;-81
2022/10/16 13:31:03;;;;;;;14.10;2.53;;;16.70;99.90;;;;;;6266669;22;20035;-82
2022/10/16 13:33:39;;;;;;;12.75;2.78;;;16.70;99.90;;;;;;6269613;22;20012;-82
2022/10/16 13:36:06;;;;;;;9.93;2.60;;;16.70;99.90;;;;;;6270741;22;20086;-83
2022/10/16 13:38:34;;;;;;;10.35;2.85;;;16.60;99.90;;;;;;6271334;22;20016;-82
2022/10/16 13:41:06;;;;;;;11.82;2.60;;;16.70;99.90;;;;;;6300859;22;20031;-82
2022/10/16 13:43:36;;;;;;;9.65;3.35;;;16.50;99.90;;;;;;6278013;22;20000;-83
2022/10/16 13:46:07;;;;;;;12.98;2.97;;;16.50;99.90;;;;;;6277867;22;19996;-83
2022/10/16 13:48:33;;;;;;;10.13;2.22;;;16.40;99.90;;;;;;6300822;22;19999;-81
2022/10/16 13:51:17;;;;;;;15.52;3.25;;;16.50;99.90;;;;;;6303502;22;20007;-82
2022/10/16 13:53:43;;;;;;;11.63;2.58;;;16.40;99.90;;;;;;6304554;22;20031;-82
2022/10/16 13:56:18;;;;;;;13.55;3.10;;;16.50;99.90;;;;;;6301681;22;20046;-82
2022/10/16 13:58:44;;;;;;;15.38;2.38;;;16.50;99.90;;;;;;6270029;22;20016;-84
2022/10/16 14:01:25;;;;;;;14.95;2.75;;;16.50;99.90;;;;;;6295238;22;20012;-81
2022/10/16 14:03:51;;;;;;;15.02;2.95;;;16.50;99.90;;;;;;6242012;22;20016;-82
2022/10/16 14:06:22;;;;;;;16.60;3.10;;;16.50;99.90;;;;;;6237749;22;20023;-79
2022/10/16 14:08:59;;;;;;;16.75;2.83;;;16.40;99.90;;;;;;6294985;22;20016;-80
2022/10/16 14:11:26;;;;;;;14.77;3.67;;;16.40;99.90;;;;;;6294421;22;20016;-80
2022/10/16 14:13:52;;;;;;;12.68;2.38;;;16.50;99.90;;;;;;6295974;22;20231;-81
2022/10/16 14:16:22;;;;;;;15.73;3.30;;;16.40;99.90;;;;;;6269008;22;20016;-81
2022/10/16 14:19:02;;;;;;;14.82;3.65;;;16.40;99.90;;;;;;6295258;22;20015;-84
2022/10/16 14:21:28;;;;;;;11.23;2.72;;;16.40;99.90;;;;;;6268178;22;20042;-84
2022/10/16 14:23:54;;;;;;;15.57;3.17;;;16.40;99.90;;;;;;6257559;22;20008;-82
2022/10/16 14:26:24;;;;;;;14.48;2.80;;;16.30;99.90;;;;;;6267463;23;20028;-83
2022/10/16 14:29:12;;;;;;;16.70;2.83;;;16.30;99.90;;;;;;6204959;23;20040;-81
2022/10/16 14:31:39;;;;;;;17.70;3.03;;;16.30;99.90;;;;;;6227192;23;20020;-80
2022/10/16 14:34:22;;;;;;;22.35;3.65;;;16.20;99.90;;;;;;6229947;23;20012;-80
2022/10/16 14:36:48;;;;;;;13.35;2.58;;;16.20;99.90;;;;;;6205520;23;20068;-82
2022/10/16 14:39:19;;;;;;;13.70;2.80;;;16.20;99.90;;;;;;6240188;23;20004;-82
2022/10/16 14:41:49;;;;;;;16.17;3.42;;;16.10;99.90;;;;;;6213881;23;20314;-81
2022/10/16 14:44:17;;;;;;;16.67;3.15;;;16.10;99.90;;;;;;6198140;23;20068;-82
2022/10/16 14:46:44;;;;;;;14.93;2.50;;;16.10;99.90;;;;;;6225653;23;20000;-83
2022/10/16 14:49:09;;;;;;;14.05;3.03;;;16.00;99.90;;;;;;6227881;23;20019;-82
2022/10/16 14:51:44;;;;;;;17.08;2.95;;;15.90;99.90;;;;;;6178051;23;20016;-82
2022/10/16 14:54:11;;;;;;;11.25;2.60;;;15.90;99.90;;;;;;6237726;23;20449;-82
2022/10/16 14:56:54;;;;;;;11.43;2.83;;;15.90;99.90;;;;;;6210079;23;20333;-82
2022/10/16 14:59:28;;;;;;;13.65;2.65;;;15.80;99.90;;;;;;6235256;23;20017;-82
2022/10/16 15:01:54;;;;;;;12.40;2.88;;;15.70;99.90;;;;;;6223891;23;20017;-82
2022/10/16 15:04:20;;;;;;;18.23;2.80;;;15.70;99.90;;;;;;6166074;23;20048;-82
2022/10/16 15:06:46;;;;;;;15.55;2.90;;;15.70;99.90;;;;;;6191095;23;20020;-81
2022/10/16 15:09:12;;;;;;;22.50;2.95;;;15.70;99.90;;;;;;6217211;23;20477;-82
2022/10/16 15:11:38;;;;;;;12.75;2.58;;;16.00;99.90;;;;;;6165178;23;20016;-82
2022/10/16 15:14:04;;;;;;;16.98;3.60;;;15.70;99.90;;;;;;6220732;23;20015;-81
2022/10/16 15:16:30;;;;;;;15.32;3.08;;;15.70;99.90;;;;;;6191344;23;20557;-79
2022/10/16 15:18:57;;;;;;;22.88;2.72;;;15.60;99.90;;;;;;6192312;23;20016;-80
2022/10/16 15:21:26;;;;;;;13.38;3.10;;;15.60;99.90;;;;;;6219018;23;20372;-80
2022/10/16 15:23:52;;;;;;;18.13;2.83;;;15.60;99.90;;;;;;6222803;23;20021;-81
2022/10/16 15:26:18;;;;;;;14.68;3.03;;;15.60;99.90;;;;;;6179413;23;20055;-81
2022/10/16 15:28:44;;;;;;;16.13;3.63;;;15.60;99.90;;;;;;6208841;23;20028;-81
2022/10/16 15:31:10;;;;;;;14.88;3.03;;;15.60;99.90;;;;;;6239453;23;20064;-82
2022/10/16 15:33:35;;;;;;;15.98;3.55;;;15.50;99.90;;;;;;6240940;23;20004;-81
2022/10/16 15:36:05;;;;;;;16.70;3.88;;;15.40;99.90;;;;;;6240725;23;20013;-82
2022/10/16 15:38:31;;;;;;;14.15;2.53;;;15.40;99.90;;;;;;6187863;23;20043;-82
2022/10/16 15:40:57;;;;;;;15.30;3.00;;;15.40;99.90;;;;;;6237669;23;20012;-82
2022/10/16 15:43:22;;;;;;;14.55;2.92;;;15.30;99.90;;;;;;6213189;23;20003;-83
2022/10/16 15:46:00;;;;;;;10.95;2.72;;;15.30;99.90;;;;;;6213624;23;20056;-84
2022/10/16 15:48:25;;;;;;;19.60;4.05;;;15.30;99.90;;;;;;6239648;23;20044;-84
2022/10/16 15:50:51;;;;;;;18.90;3.65;;;15.50;99.90;;;;;;6213471;23;20009;-83
2022/10/16 15:53:17;;;;;;;15.77;3.00;;;15.20;99.90;;;;;;6208357;23;20068;-84
2022/10/16 15:55:42;;;;;;;20.60;3.47;;;15.20;99.90;;;;;;6204666;23;20073;-85
2022/10/16 15:58:08;;;;;;;13.15;3.20;;;15.10;99.90;;;;;;6230192;23;20060;-84
2022/10/16 16:00:33;;;;;;;14.90;2.88;;;15.10;99.90;;;;;;6178550;23;20019;-83
2022/10/16 16:02:59;;;;;;;15.05;3.55;;;15.00;99.90;;;;;;6218454;23;20013;-84
2022/10/16 16:05:25;;;;;;;14.55;2.80;;;15.20;99.90;;;;;;6217212;23;20448;-85
2022/10/16 16:07:51;;;;;;;13.75;3.40;;;14.90;99.90;;;;;;6164120;23;20012;-83
2022/10/16 16:10:17;;;;;;;16.25;3.80;;;15.00;99.90;;;;;;6163864;23;20016;-84
2022/10/16 16:12:49;;;;;;;20.02;3.33;;;14.80;99.90;;;;;;6163165;23;20028;-84
2022/10/16 16:15:14;;;;;;;22.90;3.67;;;14.70;99.90;;;;;;6215179;23;20013;-83
2022/10/16 16:17:40;;;;;;;15.60;3.30;;;14.70;99.90;;;;;;6189847;23;20072;-83
2022/10/16 16:20:07;;;;;;;21.83;3.70;;;14.60;99.90;;;;;;6165983;23;20029;-82
2022/10/16 16:22:33;;;;;;;12.00;3.08;;;14.50;99.90;;;;;;6223498;23;20088;-82
2022/10/16 16:24:58;;;;;;;15.70;3.72;;;14.50;99.90;;;;;;6212696;23;20008;-82
2022/10/16 16:27:29;;;;;;;13.13;4.07;;;14.40;99.90;;;;;;6219548;23;20028;-83
2022/10/16 16:29:55;;;;;;;15.23;3.97;;;14.30;99.90;;;;;;6218355;23;20452;-82
2022/10/16 16:32:21;;;;;;;17.98;4.30;;;14.20;99.90;;;;;;6248986;23;20044;-82
2022/10/16 16:34:47;;;;;;;14.30;3.55;;;14.80;99.90;;;;;;6247208;23;20070;-83
2022/10/16 16:37:13;;;;;;;16.88;3.58;;;14.10;99.90;;;;;;6219679;23;20078;-82
2022/10/16 16:39:39;;;;;;;13.00;3.38;;;14.00;99.90;;;;;;6219215;23;20016;-82
2022/10/16 16:42:06;;;;;;;16.77;3.58;;;14.00;99.90;;;;;;6220733;23;20023;-82
2022/10/16 16:44:32;;;;;;;14.57;3.65;;;13.90;99.90;;;;;;6244209;23;20008;-82
2022/10/16 16:46:58;;;;;;;17.77;4.45;;;13.90;99.90;;;;;;6216654;23;20352;-82
2022/10/16 16:49:23;;;;;;;18.83;4.32;;;13.90;99.90;;;;;;6203264;23;20063;-84
2022/10/16 16:51:49;;;;;;;20.60;3.20;;;13.80;99.90;;;;;;6272340;22;20000;-82
2022/10/16 16:54:15;;;;;;;19.65;3.75;;;13.70;99.90;;;;;;6272904;22;20016;-82
2022/10/16 16:56:44;;;;;;;21.23;3.70;;;13.70;99.90;;;;;;6272451;22;20020;-82
2022/10/16 16:59:14;;;;;;;12.30;3.10;;;13.60;99.90;;;;;;6246215;22;20008;-82
2022/10/16 17:01:40;;;;;;;16.23;4.13;;;13.60;99.90;;;;;;6272507;22;20024;-82
2022/10/16 17:04:07;;;;;;;20.58;4.30;;;13.50;99.90;;;;;;6247164;22;20008;-82
2022/10/16 17:06:33;;;;;;;11.45;3.60;;;13.50;99.90;;;;;;6272916;22;20001;-83
2022/10/16 17:09:02;;;;;;;19.20;4.28;;;13.40;99.90;;;;;;6216414;23;20061;-82
2022/10/16 17:11:28;;;;;;;21.38;4.72;;;13.40;99.90;;;;;;6273014;22;20012;-82
2022/10/16 17:13:56;;;;;;;20.70;4.97;;;13.30;99.90;;;;;;6272489;22;20011;-83
2022/10/16 17:16:32;;;;;;;19.65;5.07;;;13.20;99.90;;;;;;6243258;23;20024;-82
2022/10/16 17:19:08;;;;;;;23.38;7.00;;;13.20;99.90;;;;;;6245613;22;20019;-83
2022/10/16 17:21:34;;;;;;;19.35;5.78;;;13.20;99.90;;;;;;6246959;22;20048;-82
2022/10/16 17:24:11;;;;;;;24.10;6.82;;;13.20;99.90;;;;;;6272056;22;20004;-82
2022/10/16 17:26:39;;;;;;;17.65;6.40;;;13.10;99.90;;;;;;6247438;22;20060;-82
2022/10/16 17:29:04;;;;;;;;;;;13.30;99.90;;;;;;6273236;22;19996;-82
2022/10/16 17:31:33;;;;;;;22.65;7.85;;;13.00;99.90;;;;;;6273401;22;19930;-83
2022/10/16 17:34:01;;;;;;;28.27;8.82;;;13.10;99.90;;;;;;6247264;22;20157;-82
2022/10/16 17:36:30;;;;;;;30.92;9.55;;;13.10;99.90;;;;;;6221104;22;20034;-83
2022/10/16 17:39:27;;;;;;;22.15;7.60;;;13.10;99.90;;;;;;6246724;22;20060;-81
2022/10/16 17:41:59;;;;;;;22.13;7.78;;;13.00;99.90;;;;;;6248094;23;20020;-84
2022/10/16 17:44:33;;;;;;;22.75;9.13;;;14.10;99.90;;;;;;6269744;22;20004;-81
2022/10/16 17:46:58;;;;;;;26.20;8.23;;;12.90;99.90;;;;;;6240712;22;20017;-81
2022/10/16 17:49:24;;;;;;;21.67;6.60;;;13.00;99.90;;;;;;6221505;22;20006;-83
2022/10/16 17:51:52;;;;;;;25.48;7.95;;;12.90;99.90;;;;;;6274816;22;20008;-82
2022/10/16 17:54:21;;;;;;;;;;;13.70;99.90;;;;;;6224802;22;20012;-82
2022/10/16 17:56:47;;;;;;;18.08;4.95;;;12.80;99.90;;;;;;6249290;22;19956;-81
2022/10/16 17:59:13;;;;;;;20.55;5.47;;;13.60;99.90;;;;;;6249153;22;20066;-82
2022/10/16 18:01:40;;;;;;;18.05;6.30;;;12.80;99.90;;;;;;6275493;22;20000;-82
2022/10/16 18:04:18;;;;;;;20.48;5.63;;;12.60;99.90;;;;;;6249024;22;20004;-82
2022/10/16 18:06:44;;;;;;;17.90;5.63;;;12.70;99.90;;;;;;6223399;22;20022;-81
2022/10/16 18:09:13;;;;;;;20.02;4.45;;;12.60;99.90;;;;;;6249020;22;20012;-82
2022/10/16 18:11:48;;;;;;;19.15;5.32;;;12.60;99.90;;;;;;6224862;22;20008;-82
2022/10/16 18:14:16;;;;;;;26.00;6.05;;;12.60;99.90;;;;;;6248191;22;20008;-82
2022/10/16 18:16:42;;;;;;;;;;;12.80;99.90;;;;;;6274036;22;20052;-82
2022/10/16 18:19:09;;;;;;;30.42;6.68;;;13.00;99.90;;;;;;6247928;22;19924;-81
2022/10/16 18:21:35;;;;;;;22.35;6.35;;;12.50;99.90;;;;;;6248099;22;20027;-82
2022/10/16 18:24:01;;;;;;;17.10;5.43;;;13.40;99.90;;;;;;6247535;22;20004;-82
2022/10/16 18:26:27;;;;;;;18.08;5.30;;;12.50;99.90;;;;;;6222496;22;20018;-82
2022/10/16 18:28:57;;;;;;;21.40;5.70;;;12.40;99.90;;;;;;6248130;22;20000;-82
2022/10/16 18:31:27;;;;;;;20.33;4.97;;;11.80;99.90;;;;;;6274066;22;20012;-81
2022/10/16 18:33:54;;;;;;;19.67;4.90;;;12.40;99.90;;;;;;6247559;22;20000;-83
2022/10/16 18:36:28;;;;;;;18.63;6.03;;;12.80;99.90;;;;;;6247127;22;20018;-82
2022/10/16 18:38:54;;;;;;;20.20;5.20;;;12.40;99.90;;;;;;6246670;22;20018;-85
2022/10/16 18:41:21;;;;;;;24.88;5.57;;;12.40;99.90;;;;;;6273727;22;20004;-82
2022/10/16 18:43:47;;;;;;;19.13;4.95;;;12.40;99.90;;;;;;6220687;23;20064;-84
2022/10/16 18:46:17;;;;;;;15.65;4.80;;;12.30;99.90;;;;;;6272597;22;19996;-83
2022/10/16 18:48:47;;;;;;;32.80;6.28;;;12.40;99.90;;;;;;6248124;22;20056;-81
2022/10/16 18:51:24;;;;;;;21.98;6.07;;;12.30;99.90;;;;;;6273907;22;20000;-82
2022/10/16 18:53:54;;;;;;;20.10;6.28;;;12.30;99.90;;;;;;6272491;22;20015;-81
2022/10/16 18:56:22;;;;;;;27.20;6.22;;;12.90;99.90;;;;;;6270519;23;20043;-81
2022/10/16 18:58:58;;;;;;;;;;;12.20;99.90;;;;;;6271945;22;20019;-81
2022/10/16 19:01:25;;;;;;;24.90;6.32;;;12.30;99.90;;;;;;6244188;23;19915;-81
2022/10/16 19:04:03;;;;;;;17.55;5.93;;;12.20;99.90;;;;;;6215634;23;20023;-80
2022/10/16 19:06:32;;;;;;;18.95;6.15;;;12.20;99.90;;;;;;6226057;23;20075;-79
2022/10/16 19:08:58;;;;;;;21.60;5.47;;;12.20;99.90;;;;;;6264114;22;20056;-81
2022/10/16 19:11:27;;;;;;;15.85;5.90;;;12.20;99.90;;;;;;6248048;22;20012;-82
2022/10/16 19:13:55;;;;;;;19.77;5.47;;;12.20;99.90;;;;;;6273729;22;20038;-82
2022/10/16 19:16:23;;;;;;;17.10;5.30;;;12.10;99.90;;;;;;6248069;22;20047;-82
2022/10/16 19:18:53;;;;;;;19.75;5.25;;;12.20;99.90;;;;;;6246991;22;20007;-83
2022/10/16 19:21:23;;;;;;;16.75;4.95;;;12.40;99.90;;;;;;6231683;23;20020;-86
2022/10/16 19:23:57;;;;;;;13.82;5.03;;;12.20;99.90;;;;;;6207933;23;20020;-85
2022/10/16 19:26:25;;;;;;;23.48;5.80;;;12.20;99.90;;;;;;6235034;23;20051;-86
2022/10/16 19:28:53;;;;;;;21.77;6.65;;;12.70;99.90;;;;;;6233361;23;20023;-87
2022/10/16 19:31:21;;;;;;;22.52;6.72;;;12.10;99.90;;;;;;6210841;23;20016;-82
2022/10/16 19:33:53;;;;;;;19.80;5.53;;;12.10;99.90;;;;;;6245626;22;20027;-83
2022/10/16 19:36:24;;;;;;;29.05;5.50;;;12.10;99.90;;;;;;6223284;23;20016;-85
2022/10/16 19:39:01;;;;;;;20.67;4.93;;;12.10;99.90;;;;;;6248436;22;20012;-86
2022/10/16 19:41:29;;;;;;;19.10;3.97;;;12.10;99.90;;;;;;6248298;22;20011;-84
2022/10/16 19:44:00;;;;;;;18.55;6.03;;;12.90;99.90;;;;;;6246832;23;20016;-87
2022/10/16 19:46:26;;;;;;;23.10;6.35;;;13.10;99.90;;;;;;6221102;22;20050;-85
2022/10/16 19:48:57;;;;;;;16.70;4.30;;;13.20;99.90;;;;;;6246779;23;20012;-85
2022/10/16 19:51:27;;;;;;;18.95;4.38;;;12.70;99.90;;;;;;6245850;22;20031;-89
2022/10/16 19:53:58;;;;;;;19.63;4.30;;;12.10;99.90;;;;;;6221069;22;20110;-84
2022/10/16 19:56:26;;;;;;;15.35;3.67;;;13.10;99.90;;;;;;6265845;23;20016;-87
2022/10/16 19:58:54;;;;;;;17.65;3.75;;;12.20;99.90;;;;;;6221258;22;20004;-87
2022/10/16 20:01:20;;;;;;;;;;;12.10;99.90;;;;;;6218990;23;20016;-88
2022/10/16 20:03:51;;;;;;;18.85;4.05;;;12.40;99.90;;;;;;6270625;22;19940;-88
2022/10/16 20:06:30;;;;;;;15.65;5.50;;;12.20;99.90;;;;;;6221945;22;20004;-81
2022/10/16 20:08:59;;;;;;;20.67;6.22;;;11.70;99.90;;;;;;6247259;22;20039;-84
2022/10/16 20:11:35;;;;;;;23.27;5.43;;;12.20;99.90;;;;;;6247392;22;20068;-85
2022/10/16 20:14:05;;;;;;;18.00;4.50;;;12.20;99.90;;;;;;6247305;22;20000;-83
2022/10/16 20:16:31;;;;;;;19.27;4.65;;;12.20;99.90;;;;;;6246870;22;20067;-84
2022/10/16 20:18:59;;;;;;;23.65;5.20;;;12.20;99.90;;;;;;6247676;22;20012;-84
2022/10/16 20:21:31;;;;;;;16.13;4.18;;;12.20;99.90;;;;;;6219892;22;20004;-85
2022/10/16 20:45:20;;;;;;;24.90;5.65;;;12.20;99.90;;;;;;6180860;22;20125;-85
2022/10/16 20:47:46;;;;;;;;;;;13.30;99.90;;;;;;6216177;22;20008;-84
2022/10/16 20:50:13;;;;;;;16.02;5.05;;;12.20;99.90;;;;;;6215083;23;19942;-84
2022/10/16 20:52:39;;;;;;;15.52;4.40;;;12.20;99.90;;;;;;6189887;23;20057;-86
2022/10/16 20:55:05;;;;;;;23.25;4.80;;;12.20;99.90;;;;;;6238114;23;20012;-86
2022/10/16 20:57:31;;;;;;;15.02;4.38;;;12.20;99.90;;;;;;6240358;23;19996;-85
2022/10/16 20:59:57;;;;;;;21.98;7.22;;;12.20;99.90;;;;;;6216627;23;20011;-85
2022/10/16 21:02:23;;;;;;;19.05;5.22;;;12.20;99.90;;;;;;6237529;22;20012;-86
2022/10/16 21:04:49;;;;;;;13.63;4.95;;;12.20;99.90;;;;;;6209275;23;20043;-86
2022/10/16 21:07:16;;;;;;;19.05;5.32;;;12.30;99.90;;;;;;6179053;23;20021;-85
2022/10/16 21:09:42;;;;;;;15.32;4.78;;;12.30;99.90;;;;;;6240298;22;20068;-84
2022/10/16 21:12:08;;;;;;;20.02;5.65;;;12.60;99.90;;;;;;6240471;22;20028;-84
2022/10/16 21:14:34;;;;;;;20.05;5.35;;;12.30;99.90;;;;;;6240463;22;20000;-85
2022/10/16 21:17:03;;;;;;;25.23;4.97;;;12.20;99.90;;;;;;6214995;23;20009;-85
2022/10/16 21:19:29;;;;;;;;;;;12.20;99.90;;;;;;6185494;23;20027;-86
2022/10/16 21:21:58;;;;;;;20.50;5.65;;;12.20;99.90;;;;;;6236365;23;19903;-84
2022/10/16 21:24:24;;;;;;;15.57;5.47;;;12.20;99.90;;;;;;6215501;23;20036;-81
2022/10/16 21:26:49;;;;;;;16.60;5.80;;;12.20;99.90;;;;;;6216937;23;20012;-81
2022/10/16 21:29:15;;;;;;;25.20;5.80;;;12.20;99.90;;;;;;6216482;23;20005;-82
2022/10/16 21:31:41;;;;;;;17.33;5.07;;;12.20;99.90;;;;;;6216266;23;20009;-83
2022/10/16 21:34:07;;;;;;;20.42;6.43;;;12.20;99.90;;;;;;6215899;23;20260;-84
2022/10/16 21:36:36;;;;;;;12.48;5.72;;;12.40;99.90;;;;;;6214543;23;20028;-86
2022/10/16 21:39:07;;;;;;;17.48;5.60;;;12.20;99.90;;;;;;6190299;23;20017;-84
2022/10/16 21:41:33;;;;;;;16.55;5.80;;;12.20;99.90;;;;;;6241796;23;20060;-83
2022/10/16 21:44:00;;;;;;;15.80;5.28;;;12.20;99.90;;;;;;6241940;23;20118;-84
2022/10/16 21:46:31;;;;;;;13.20;5.30;;;12.20;99.90;;;;;;6241786;23;20048;-84
2022/10/16 21:48:59;;;;;;;19.00;5.75;;;12.20;99.90;;;;;;6241108;23;20067;-84
2022/10/16 21:51:27;;;;;;;17.83;5.53;;;12.20;99.90;;;;;;6215873;23;20027;-83
2022/10/16 21:53:53;;;;;;;16.52;5.85;;;12.20;99.90;;;;;;6240192;23;20017;-83
2022/10/16 21:56:21;;;;;;;15.93;6.55;;;12.30;99.90;;;;;;6211247;23;20020;-84
2022/10/16 21:58:48;;;;;;;18.40;6.60;;;12.20;99.90;;;;;;6238923;23;20016;-84
2022/10/16 22:01:19;;;;;;;18.65;6.82;;;12.20;99.90;;;;;;6213682;23;20052;-83
2022/10/16 22:03:45;;;;;;;18.45;6.80;;;12.20;99.90;;;;;;6240945;23;20032;-83
2022/10/16 22:06:12;;;;;;;15.88;6.50;;;12.20;99.90;;;;;;6243018;23;20008;-83
2022/10/16 22:08:42;;;;;;;22.35;6.55;;;12.20;99.90;;;;;;6216753;23;20023;-84
2022/10/16 22:11:13;;;;;;;13.45;5.95;;;12.20;99.90;;;;;;6242767;23;20177;-83
2022/10/16 22:13:39;;;;;;;20.50;6.07;;;12.20;99.90;;;;;;6242084;23;20061;-84
2022/10/16 22:16:05;;;;;;;19.00;6.13;;;12.20;99.90;;;;;;6242043;23;20005;-84
2022/10/16 22:18:32;;;;;;;13.85;6.25;;;12.30;99.90;;;;;;6217129;23;20027;-83
2022/10/16 22:20:58;;;;;;;13.65;5.65;;;12.30;99.90;;;;;;6191410;23;20016;-84
2022/10/16 22:23:24;;;;;;;13.25;5.30;;;12.20;99.90;;;;;;6239705;23;20017;-84
2022/10/16 22:25:50;;;;;;;16.70;5.78;;;12.20;99.90;;;;;;6214862;23;20071;-84
2022/10/16 22:28:19;;;;;;;15.95;5.50;;;12.30;99.90;;;;;;6215908;23;21190;-83
2022/10/16 22:30:45;;;;;;;14.32;5.45;;;12.20;99.90;;;;;;6214931;23;20072;-83
2022/10/16 22:33:11;;;;;;;16.52;5.47;;;12.20;99.90;;;;;;6215717;23;20096;-83
2022/10/16 22:35:38;;;;;;;23.40;6.43;;;12.20;99.90;;;;;;6240814;23;20044;-83
2022/10/16 22:38:05;;;;;;;17.90;5.30;;;12.20;99.90;;;;;;6212094;23;20021;-84
2022/10/16 22:40:36;;;;;;;16.73;5.20;;;12.20;99.90;;;;;;6217306;23;20758;-83
2022/10/16 22:43:03;;;;;;;13.40;5.18;;;12.20;99.90;;;;;;6215493;23;20012;-83
2022/10/16 22:45:33;;;;;;;15.43;5.40;;;12.20;99.90;;;;;;6242330;23;20012;-83
2022/10/16 22:48:00;;;;;;;20.30;5.65;;;12.30;99.90;;;;;;6242449;23;20028;-83
2022/10/16 22:50:26;;;;;;;20.63;5.15;;;12.20;99.90;;;;;;6214629;23;20016;-83
2022/10/16 22:52:52;;;;;;;15.80;5.30;;;12.30;99.90;;;;;;6205023;23;20016;-83
2022/10/16 22:55:18;;;;;;;19.70;5.70;;;12.30;99.90;;;;;;6227356;23;20060;-84
2022/10/16 22:57:44;;;;;;;15.40;5.07;;;12.30;99.90;;;;;;6227027;23;20012;-84
2022/10/16 23:00:14;;;;;;;18.42;5.38;;;12.40;99.90;;;;;;6227608;23;20055;-83
2022/10/16 23:02:39;;;;;;;13.73;4.93;;;12.30;99.90;;;;;;6225844;23;20051;-84
2022/10/16 23:05:07;;;;;;;17.02;4.90;;;12.30;99.90;;;;;;6229462;23;20347;-84
2022/10/16 23:07:33;;;;;;;23.40;5.97;;;12.30;99.90;;;;;;6200322;23;20024;-84
2022/10/16 23:09:58;;;;;;;25.50;5.53;;;12.30;99.90;;;;;;6231584;23;20028;-84
2022/10/16 23:12:25;;;;;;;16.13;5.60;;;12.40;99.90;;;;;;6235298;23;20012;-85
2022/10/16 23:14:53;;;;;;;13.73;5.40;;;12.30;99.90;;;;;;6244095;23;20019;-84
2022/10/16 23:17:19;;;;;;;14.80;4.88;;;12.30;99.90;;;;;;6243777;23;20013;-85
2022/10/16 23:19:45;;;;;;;13.07;4.95;;;12.50;99.90;;;;;;6237810;23;20020;-84
2022/10/16 23:22:11;;;;;;;11.85;4.72;;;12.30;99.90;;;;;;6178478;23;20012;-84
2022/10/16 23:24:37;;;;;;;17.13;4.75;;;12.20;99.90;;;;;;6206932;23;20024;-84
2022/10/16 23:27:03;;;;;;;14.68;4.63;;;12.20;99.90;;;;;;6205553;23;20012;-84
2022/10/16 23:29:29;;;;;;;14.18;5.47;;;12.20;99.90;;;;;;6205688;23;20019;-85
2022/10/16 23:32:12;;;;;;;16.15;4.80;;;12.20;99.90;;;;;;6179849;23;20068;-84
2022/10/16 23:34:38;;;;;;;14.80;4.57;;;12.20;99.90;;;;;;6236263;23;20016;-83
2022/10/16 23:37:05;;;;;;;15.70;5.47;;;12.20;99.90;;;;;;6236970;23;20075;-84
2022/10/16 23:39:31;;;;;;;14.00;4.68;;;12.20;99.90;;;;;;6181988;23;20334;-84
2022/10/16 23:41:56;;;;;;;17.02;4.55;;;12.10;99.90;;;;;;6230348;23;20028;-84
2022/10/16 23:44:22;;;;;;;16.50;4.50;;;12.10;99.90;;;;;;6232254;23;20017;-84
2022/10/16 23:46:48;;;;;;;19.10;5.28;;;12.00;99.90;;;;;;6232546;23;20017;-85
2022/10/16 23:49:13;;;;;;;16.58;4.68;;;12.00;99.90;;;;;;6235263;23;20024;-84
2022/10/16 23:51:39;;;;;;;18.75;4.70;;;12.00;99.90;;;;;;6236394;23;20040;-84
2022/10/16 23:54:05;;;;;;;12.35;4.22;;;12.00;99.90;;;;;;6239615;23;20005;-84
2022/10/16 23:56:30;;;;;;;13.73;4.57;;;12.40;99.90;;;;;;6217896;23;20019;-83
2022/10/16 23:58:56;;;;;;;14.98;4.72;;;11.90;99.90;;;;;;6217874;23;20041;-84
